Time;durP1;ratioP1;P1;durP2;ratioP2;P2;SDS_P1;SDS_P2;PMS_P1;PMS_P2;Temp;Humidity;BMP_temperature;BMP_pressure;BME280_temperature;BME280_humidity;BME280_pressure;Samples;Min_cycle;Max_cycle;Signal;HPM_P1;HPM_P2
2022/01/13 00:00:46;;;;;;;13.95;5.90;;;;;;;-15.19;69.07;100393.91;5033491;28;20080;-82
2022/01/13 00:03:13;;;;;;;12.70;4.82;;;;;;;-15.15;69.05;100383.50;5032199;28;20057;-82
2022/01/13 00:05:40;;;;;;;15.00;5.15;;;;;;;-15.21;68.24;100350.22;5033449;28;20050;-81
2022/01/13 00:08:07;;;;;;;14.60;5.38;;;;;;;-15.32;68.97;100339.00;5032364;28;20100;-81
2022/01/13 00:10:34;;;;;;;13.10;4.75;;;;;;;-15.48;68.48;100310.47;5033230;28;20076;-81
2022/01/13 00:13:09;;;;;;;13.13;5.07;;;;;;;-15.29;68.93;100354.41;5032284;28;20049;-81
2022/01/13 00:15:46;;;;;;;13.10;5.05;;;;;;;-15.12;69.12;100356.28;5033897;28;20085;-81
2022/01/13 00:18:19;;;;;;;14.05;5.25;;;;;;;-15.16;68.47;100321.56;5033943;28;20056;-82
2022/01/13 00:26:14;;;;;;;17.48;4.72;;;;;;;-15.19;68.16;100302.78;5033049;28;20061;-80
2022/01/13 00:28:44;;;;;;;12.75;5.25;;;;;;;-15.03;68.80;100332.94;5045579;28;20136;-80
2022/01/13 00:31:11;;;;;;;17.90;6.97;;;;;;;-14.99;69.24;100327.53;5053556;28;20584;-80
2022/01/13 00:33:45;;;;;;;15.88;6.15;;;;;;;-14.96;68.73;100336.31;5059464;28;20110;-81
2022/01/13 00:36:13;;;;;;;15.70;5.32;;;;;;;-15.21;69.17;100320.16;5055753;28;20087;-82
2022/01/13 00:38:40;;;;;;;14.85;6.28;;;;;;;-15.17;69.10;100347.34;5035652;28;20053;-82
2022/01/13 00:41:07;;;;;;;14.52;5.85;;;;;;;-15.20;69.15;100352.03;5035785;28;20084;-82
2022/01/13 00:43:39;;;;;;;12.95;5.47;;;;;;;-15.27;69.39;100327.00;5053565;28;20142;-83
2022/01/13 00:46:07;;;;;;;13.32;5.60;;;;;;;-15.30;68.84;100320.03;5036661;28;20053;-82
2022/01/13 00:48:35;;;;;;;15.40;5.03;;;;;;;-15.28;69.30;100341.13;5053362;28;20076;-80
2022/01/13 00:51:02;;;;;;;16.55;5.80;;;;;;;-15.30;68.69;100334.19;5052812;28;20053;-81
2022/01/13 00:53:29;;;;;;;12.48;5.35;;;;;;;-15.34;69.05;100347.09;5052802;28;20061;-80
2022/01/13 00:55:58;;;;;;;16.55;5.93;;;;;;;-15.39;69.10;100354.09;5052919;28;20103;-81
2022/01/13 00:58:28;;;;;;;15.35;5.07;;;;;;;-15.59;68.57;100301.75;5052449;28;20041;-80
2022/01/13 01:00:56;;;;;;;14.07;4.47;;;;;;;-15.51;69.06;100328.53;5052397;28;20049;-81
2022/01/13 01:03:25;;;;;;;14.63;5.13;;;;;;;-15.52;69.24;100316.75;5051530;28;20049;-81
2022/01/13 01:05:52;;;;;;;13.75;5.53;;;;;;;-15.58;68.69;100331.09;5052817;28;20517;-81
2022/01/13 01:08:19;;;;;;;15.48;5.30;;;;;;;-15.74;69.42;100318.50;5052838;28;20049;-80
2022/01/13 01:10:49;;;;;;;15.88;6.22;;;;;;;-15.75;68.69;100314.19;5052912;28;20576;-81
2022/01/13 01:13:20;;;;;;;12.63;4.78;;;;;;;-15.79;68.82;100332.09;5052702;28;20422;-81
2022/01/13 01:15:52;;;;;;;10.52;4.57;;;;;;;-15.86;69.55;100319.59;5035240;28;20049;-81
2022/01/13 01:18:32;;;;;;;15.73;5.88;;;;;;;-15.85;69.24;100312.97;5053000;28;20053;-80
2022/01/13 01:26:35;;;;;;;15.77;5.88;;;;;;;-15.86;68.96;100293.69;5052946;28;20143;-81
2022/01/13 01:31:52;;;;;;;16.77;5.57;;;;;;;-15.97;68.82;100269.94;5036712;28;20529;-80
2022/01/13 01:37:15;;;;;;;13.20;4.65;;;;;;;-15.81;68.78;100253.41;5056183;28;20552;-82
2022/01/13 01:39:45;;;;;;;15.77;5.45;;;;;;;-15.81;69.14;100247.50;5056171;28;20498;-81
2022/01/13 01:42:13;;;;;;;16.90;5.72;;;;;;;-15.85;68.93;100248.75;5056095;28;20056;-80
2022/01/13 01:44:44;;;;;;;18.35;5.72;;;;;;;-15.97;68.98;100237.41;5055906;28;20064;-80
2022/01/13 01:47:13;;;;;;;14.32;5.82;;;;;;;-15.89;69.10;100225.00;5055975;28;20442;-81
2022/01/13 01:49:43;;;;;;;17.50;5.85;;;;;;;-15.93;68.61;100215.38;5055975;28;20466;-80
2022/01/13 01:52:11;;;;;;;15.40;6.22;;;;;;;-15.71;69.10;100236.16;5055809;28;20057;-79
2022/01/13 01:54:39;;;;;;;14.93;5.35;;;;;;;-15.66;68.50;100236.66;5056774;28;20059;-81
2022/01/13 01:57:08;;;;;;;14.18;5.90;;;;;;;-15.76;68.61;100212.25;5038070;28;20465;-81
2022/01/13 01:59:39;;;;;;;13.40;5.15;;;;;;;-15.70;68.89;100224.50;5055452;28;20442;-80
2022/01/13 02:02:07;;;;;;;10.88;5.50;;;;;;;-15.77;68.87;100227.09;5038715;28;20103;-81
2022/01/13 02:04:36;;;;;;;14.77;5.13;;;;;;;-15.89;68.83;100217.50;5055675;28;20154;-80
2022/01/13 02:07:06;;;;;;;13.05;5.25;;;;;;;-15.83;68.98;100238.94;5057492;28;20075;-81
2022/01/13 02:09:37;;;;;;;15.68;5.35;;;;;;;-15.89;68.83;100240.03;5058560;28;20171;-81
2022/01/13 02:12:09;;;;;;;15.63;5.03;;;;;;;-15.93;69.06;100244.53;5055652;28;20053;-80
2022/01/13 02:14:50;;;;;;;14.90;6.13;;;;;;;-16.00;68.95;100237.94;5055781;28;20052;-81
2022/01/13 02:17:26;;;;;;;13.35;5.40;;;;;;;-15.97;68.45;100250.78;5055286;28;20507;-80
2022/01/13 02:19:55;;;;;;;13.27;5.28;;;;;;;-16.02;69.44;100244.38;5037459;28;20418;-79
2022/01/13 02:22:23;;;;;;;15.75;6.22;;;;;;;-15.95;68.49;100248.47;5059148;28;20049;-80
2022/01/13 02:24:50;;;;;;;15.45;5.75;;;;;;;-15.88;69.05;100241.81;5060348;28;20506;-79
2022/01/13 02:27:17;;;;;;;14.13;5.75;;;;;;;-15.75;68.51;100240.69;5060323;28;20053;-81
2022/01/13 02:29:44;;;;;;;13.70;5.32;;;;;;;-15.82;68.10;100210.69;5053815;28;20057;-80
2022/01/13 02:32:11;;;;;;;12.73;5.97;;;;;;;-15.74;68.38;100223.34;5054698;28;20556;-81
2022/01/13 02:34:38;;;;;;;16.15;6.32;;;;;;;-15.78;68.03;100241.25;5054533;28;20391;-81
2022/01/13 02:37:05;;;;;;;17.05;5.60;;;;;;;-15.75;68.24;100238.19;5054720;28;20060;-81
2022/01/13 02:39:33;;;;;;;18.25;5.82;;;;;;;-15.76;68.96;100216.38;5054779;28;20064;-80
2022/01/13 02:42:02;;;;;;;16.17;6.32;;;;;;;-15.58;68.83;100225.88;5036518;28;20084;-81
2022/01/13 02:44:30;;;;;;;14.13;4.95;;;;;;;-15.54;68.61;100225.50;5054242;28;20053;-81
2022/01/13 02:47:32;;;;;;;14.43;5.45;;;;;;;-15.62;68.42;100222.88;5036538;28;20502;-80
2022/01/13 02:50:07;;;;;;;14.70;5.45;;;;;;;-15.56;69.06;100206.03;5054438;28;20057;-81
2022/01/13 02:52:35;;;;;;;13.55;5.65;;;;;;;-15.62;68.72;100177.78;5054275;28;20055;-81
2022/01/13 02:55:03;;;;;;;12.02;5.07;;;;;;;-15.62;68.79;100157.75;5054824;28;20507;-80
2022/01/13 02:57:32;;;;;;;14.70;5.35;;;;;;;-15.37;68.69;100167.22;5036333;28;20052;-81
2022/01/13 03:00:00;;;;;;;12.07;4.97;;;;;;;-15.24;68.42;100188.63;5054255;28;20049;-81
2022/01/13 03:02:31;;;;;;;13.38;6.28;;;;;;;-15.43;68.50;100198.25;5054750;28;20060;-81
2022/01/13 03:04:59;;;;;;;12.02;5.30;;;;;;;-15.61;68.51;100204.59;5036167;28;20140;-80
2022/01/13 03:07:30;;;;;;;17.30;6.25;;;;;;;-15.75;68.76;100219.03;5054449;28;20091;-79
2022/01/13 03:09:57;;;;;;;13.77;5.05;;;;;;;-15.83;68.62;100219.78;5036730;28;20418;-81
2022/01/13 03:12:26;;;;;;;13.60;5.72;;;;;;;-15.82;68.22;100218.19;5055002;28;20053;-82
2022/01/13 03:14:56;;;;;;;15.50;5.38;;;;;;;-15.91;68.08;100216.44;5054915;28;20085;-80
2022/01/13 03:17:22;;;;;;;16.00;6.00;;;;;;;-16.00;68.01;100217.00;5054005;28;20499;-80
2022/01/13 03:19:49;;;;;;;20.85;6.30;;;;;;;-16.11;68.42;100213.28;5053844;28;20049;-79
2022/01/13 03:22:16;;;;;;;15.82;5.95;;;;;;;-16.02;68.45;100220.94;5035692;28;20106;-78
2022/01/13 03:24:43;;;;;;;13.82;5.93;;;;;;;-16.09;68.75;100189.34;5053755;28;20053;-79
2022/01/13 03:27:18;;;;;;;17.85;6.20;;;;;;;-15.91;68.29;100208.03;5053719;28;20053;-80
2022/01/13 03:29:46;;;;;;;18.75;5.55;;;;;;;-15.91;67.91;100213.94;5054440;28;20049;-80
2022/01/13 03:32:17;;;;;;;17.10;6.05;;;;;;;-15.98;68.49;100176.44;5020351;28;20426;-79
2022/01/13 03:34:44;;;;;;;15.68;5.45;;;;;;;-15.89;69.04;100169.06;5053893;28;20414;-80
2022/01/13 03:37:11;;;;;;;16.13;6.05;;;;;;;-15.75;68.36;100168.06;5053568;28;20461;-79
2022/01/13 03:39:38;;;;;;;20.17;7.03;;;;;;;-15.49;67.82;100178.41;5053535;28;20491;-80
2022/01/13 03:42:05;;;;;;;17.55;6.68;;;;;;;-15.52;67.80;100190.63;5053936;28;20057;-81
2022/01/13 03:44:32;;;;;;;16.92;6.28;;;;;;;-15.74;67.58;100188.28;5052132;28;20147;-80
2022/01/13 03:47:02;;;;;;;21.33;6.50;;;;;;;-15.88;68.49;100169.19;5053720;28;20147;-80
2022/01/13 03:49:30;;;;;;;20.70;7.05;;;;;;;-15.84;68.58;100177.06;5035584;28;20103;-81
2022/01/13 03:52:03;;;;;;;20.10;7.55;;;;;;;-15.84;68.73;100170.44;5053299;28;20107;-81
2022/01/13 03:54:33;;;;;;;19.55;6.45;;;;;;;-15.83;68.92;100153.81;5052365;28;20147;-80
2022/01/13 03:57:12;;;;;;;17.25;6.60;;;;;;;-15.72;69.37;100136.75;5053145;28;20064;-80
2022/01/13 04:00:40;;;;;;;26.83;9.38;;;;;;;-15.39;68.25;100137.72;5053459;28;20053;-82
2022/01/13 04:03:08;;;;;;;19.30;7.38;;;;;;;-15.18;68.14;100115.00;5054486;28;20091;-80
2022/01/13 04:06:03;;;;;;;17.35;7.10;;;;;;;-14.99;67.79;100095.31;5053012;28;20548;-81
2022/01/13 04:08:31;;;;;;;15.43;6.20;;;;;;;-14.98;68.22;100068.59;5053067;28;20056;-82
2022/01/13 04:11:04;;;;;;;20.88;6.32;;;;;;;-14.71;67.97;100085.66;5053039;28;20055;-80
2022/01/13 04:16:36;;;;;;;19.52;7.18;;;;;;;-14.40;67.90;100068.78;5043991;28;20057;-83
2022/01/13 04:19:07;;;;;;;18.17;6.95;;;;;;;-14.31;68.33;100055.56;5035147;28;20144;-81
2022/01/13 04:21:40;;;;;;;18.13;7.78;;;;;;;-14.41;67.63;100025.22;5053433;28;20053;-82
2022/01/13 04:24:11;;;;;;;13.93;5.78;;;;;;;-14.60;67.65;99987.34;5035487;28;20568;-83
2022/01/13 04:26:43;;;;;;;18.27;6.90;;;;;;;-14.81;67.71;99952.53;5053414;28;20600;-86
2022/01/13 04:31:38;;;;;;;18.85;7.88;;;;;;;-14.78;67.79;99987.94;5036709;28;20525;-83
2022/01/13 04:34:05;;;;;;;18.95;8.88;;;;;;;-15.00;68.81;99955.63;5053671;28;20079;-82
2022/01/13 04:36:32;;;;;;;22.50;8.63;;;;;;;-15.13;69.07;99962.59;5053866;28;20067;-82
2022/01/13 04:39:00;;;;;;;22.60;8.93;;;;;;;-15.13;68.93;99986.03;5053075;28;20404;-83
2022/01/13 04:41:35;;;;;;;25.27;9.57;;;;;;;-15.13;68.67;99986.03;5038827;28;20088;-85
2022/01/13 04:44:08;;;;;;;20.00;9.18;;;;;;;-15.16;68.40;99983.22;5053942;28;20469;-83
2022/01/13 04:46:35;;;;;;;24.92;9.60;;;;;;;-15.13;68.55;100008.59;5052811;28;20053;-83
2022/01/13 04:49:04;;;;;;;41.78;15.52;;;;;;;-15.11;68.59;100031.31;5052509;28;20056;-83
2022/01/13 04:51:31;;;;;;;35.55;14.23;;;;;;;-15.11;68.74;100014.66;5052379;28;20496;-83
2022/01/13 04:53:58;;;;;;;31.67;11.05;;;;;;;-15.21;68.61;100004.38;5052717;28;20052;-81
2022/01/13 04:58:55;;;;;;;22.92;10.90;;;;;;;-15.22;69.20;100000.09;5052122;28;20504;-79
2022/01/13 05:01:23;;;;;;;24.23;10.52;;;;;;;-14.98;68.16;100038.53;5054613;28;20057;-79
2022/01/13 05:03:50;;;;;;;23.58;9.25;;;;;;;-15.02;67.94;100021.38;5052424;28;20549;-81
2022/01/13 05:06:19;;;;;;;29.33;10.48;;;;;;;-15.18;68.64;99984.66;5056185;28;20048;-84
2022/01/13 05:08:48;;;;;;;22.35;8.95;;;;;;;-14.92;68.38;100004.94;5058633;28;20110;-82
2022/01/13 05:11:19;;;;;;;25.75;10.70;;;;;;;-14.86;68.48;99984.63;5040906;28;20080;-81
2022/01/13 05:13:46;;;;;;;29.20;12.00;;;;;;;-14.57;68.65;100002.72;5063549;28;20049;-83
2022/01/13 05:17:04;;;;;;;26.13;10.30;;;;;;;-14.51;68.47;99985.75;5041684;28;20075;-83
2022/01/13 05:19:14;;;;;;;22.77;9.07;;;;;;;-14.47;68.33;99992.00;5052683;28;20049;-85
2022/01/13 05:24:10;;;;;;;29.45;11.35;;;;;;;-14.51;67.71;99978.22;5057418;28;20122;-80
2022/01/13 05:26:38;;;;;;;27.83;9.73;;;;;;;-14.62;68.43;99947.75;5055719;28;20051;-80
2022/01/13 05:29:05;;;;;;;24.10;10.20;;;;;;;-14.28;68.19;99973.06;5057518;28;20144;-80
2022/01/13 05:31:32;;;;;;;27.23;10.40;;;;;;;-14.19;67.57;99967.16;5057115;28;20053;-81
2022/01/13 05:33:59;;;;;;;27.80;10.55;;;;;;;-14.38;67.72;99926.78;5057173;28;20102;-81
2022/01/13 05:36:25;;;;;;;31.70;9.77;;;;;;;-14.35;67.91;99927.97;5057372;28;20487;-81
2022/01/13 05:38:53;;;;;;;24.10;9.15;;;;;;;-14.37;68.60;99924.41;5057476;28;20053;-82
2022/01/13 05:41:20;;;;;;;32.90;10.32;;;;;;;-14.52;68.36;99908.69;5056641;28;20119;-82
2022/01/13 05:43:46;;;;;;;24.13;8.27;;;;;;;-14.51;68.10;99915.50;5055314;28;20056;-83
2022/01/13 05:46:13;;;;;;;25.80;8.50;;;;;;;-14.50;68.89;99913.88;5057208;28;20106;-83
2022/01/13 05:48:40;;;;;;;19.60;7.68;;;;;;;-14.56;68.79;99921.72;5038576;28;20110;-82
2022/01/13 05:51:07;;;;;;;18.80;7.68;;;;;;;-14.76;69.03;99896.19;5039443;28;20061;-81
2022/01/13 05:53:34;;;;;;;27.00;8.32;;;;;;;-14.67;69.06;99940.69;5057459;28;20096;-82
2022/01/13 05:56:01;;;;;;;27.42;8.38;;;;;;;-14.61;68.98;99917.84;5057774;28;20140;-82
2022/01/13 05:58:31;;;;;;;;;;;;;;;-14.57;68.26;99894.84;5056645;28;20161;-82
2022/01/13 06:00:58;;;;;;;23.38;7.80;;;;;;;-14.57;68.67;99892.34;5059308;28;19925;-82
2022/01/13 06:03:25;;;;;;;32.17;9.40;;;;;;;-14.63;68.45;99896.72;5057659;28;20033;-82
2022/01/13 06:05:52;;;;;;;22.98;8.48;;;;;;;-14.81;68.85;99864.75;5057465;28;20082;-83
2022/01/13 06:08:19;;;;;;;28.20;8.90;;;;;;;-14.79;68.05;99880.84;5039698;28;20422;-83
2022/01/13 06:10:48;;;;;;;22.02;8.70;;;;;;;-14.98;68.27;99853.00;5057355;28;20063;-83
2022/01/13 06:13:15;;;;;;;19.73;8.00;;;;;;;-15.04;67.93;99868.28;5057558;28;20045;-84
2022/01/13 06:15:43;;;;;;;24.90;8.40;;;;;;;-15.06;68.31;99872.25;5058788;28;20045;-81
2022/01/13 06:18:16;;;;;;;22.80;7.60;;;;;;;-14.97;68.72;99867.31;5058592;28;20049;-82
2022/01/13 06:20:43;;;;;;;24.58;8.52;;;;;;;-15.07;68.18;99847.94;5058221;28;20052;-83
2022/01/13 06:23:18;;;;;;;24.58;8.50;;;;;;;-15.13;67.83;99853.19;5058903;28;20083;-85
2022/01/13 06:25:48;;;;;;;22.38;8.13;;;;;;;-15.31;68.35;99812.09;5057526;28;20053;-82
2022/01/13 06:28:15;;;;;;;21.67;7.63;;;;;;;-14.96;67.50;99871.59;5049866;28;20059;-83
2022/01/13 06:30:43;;;;;;;20.60;8.38;;;;;;;-14.99;68.04;99882.22;5056203;28;20537;-81
2022/01/13 06:33:19;;;;;;;18.05;6.85;;;;;;;-15.03;68.13;99867.56;5057446;28;20427;-85
2022/01/13 06:35:46;;;;;;;20.67;8.32;;;;;;;-14.80;67.71;99896.63;5059253;28;20110;-82
2022/01/13 06:38:14;;;;;;;17.83;7.45;;;;;;;-14.88;66.85;99879.19;5072291;28;20056;-83
2022/01/13 06:40:42;;;;;;;14.93;6.85;;;;;;;-14.98;67.48;99878.06;5061365;28;20067;-83
2022/01/13 06:43:09;;;;;;;19.75;7.15;;;;;;;-14.98;66.92;99899.00;5061835;28;20071;-83
2022/01/13 06:45:36;;;;;;;20.02;8.32;;;;;;;-14.97;67.36;99912.44;5061057;28;20079;-84
2022/01/13 06:48:03;;;;;;;18.17;7.43;;;;;;;-14.97;67.48;99892.38;5078285;28;20033;-84
2022/01/13 06:50:30;;;;;;;22.05;8.18;;;;;;;-14.91;67.29;99880.47;5078603;28;20051;-84
2022/01/13 06:52:57;;;;;;;19.10;7.78;;;;;;;-15.05;66.30;99854.00;5061765;28;20052;-84
2022/01/13 06:55:24;;;;;;;18.70;8.00;;;;;;;-15.09;66.94;99862.81;5078976;28;20068;-85
2022/01/13 06:57:52;;;;;;;20.15;7.03;;;;;;;-15.20;67.25;99843.28;5060350;28;20049;-82
2022/01/13 07:00:21;;;;;;;23.25;8.52;;;;;;;-15.24;67.71;99828.66;5075101;28;20059;-84
2022/01/13 07:02:48;;;;;;;31.88;9.55;;;;;;;-15.04;67.38;99838.22;5074060;28;20055;-83
2022/01/13 07:05:16;;;;;;;21.50;8.23;;;;;;;-14.86;66.97;99802.50;5057448;28;20052;-82
2022/01/13 07:07:43;;;;;;;19.50;7.90;;;;;;;-14.78;66.74;99802.38;5074995;28;20053;-83
2022/01/13 07:10:12;;;;;;;19.80;6.93;;;;;;;-14.81;66.87;99784.53;5071505;28;20080;-83
2022/01/13 07:12:41;;;;;;;21.27;6.78;;;;;;;-14.94;66.50;99790.78;5064574;28;20503;-82
2022/01/13 07:15:09;;;;;;;20.08;8.05;;;;;;;-14.97;66.92;99800.50;5075167;28;20036;-81
2022/01/13 07:17:37;;;;;;;21.75;8.38;;;;;;;-15.10;66.81;99812.50;5076440;28;20069;-81
2022/01/13 07:20:05;;;;;;;20.45;7.65;;;;;;;-15.33;67.29;99785.13;5074949;28;20099;-83
2022/01/13 07:22:32;;;;;;;21.92;8.15;;;;;;;-15.59;67.07;99757.34;5064143;28;20053;-81
2022/01/13 07:24:59;;;;;;;21.77;8.23;;;;;;;-15.28;66.93;99786.47;5053732;28;20154;-82
2022/01/13 07:27:26;;;;;;;26.17;8.68;;;;;;;-15.15;66.16;99793.63;5054043;28;20053;-81
2022/01/13 07:29:53;;;;;;;22.55;7.20;;;;;;;-15.12;66.18;99779.81;5053476;28;20129;-82
2022/01/13 07:32:20;;;;;;;21.70;8.52;;;;;;;-15.18;66.85;99733.16;5054326;28;20510;-82
2022/01/13 07:34:47;;;;;;;26.00;9.02;;;;;;;-14.91;65.64;99782.69;5053672;28;20056;-82
2022/01/13 07:37:15;;;;;;;22.00;8.88;;;;;;;-14.91;65.78;99782.69;5054898;28;20084;-81
2022/01/13 07:39:42;;;;;;;20.70;7.95;;;;;;;-14.99;65.73;99741.81;5054312;28;20056;-82
2022/01/13 07:42:10;;;;;;;26.58;8.13;;;;;;;-14.99;66.06;99743.41;5054935;28;20110;-83
2022/01/13 07:44:37;;;;;;;22.27;7.85;;;;;;;-15.01;65.72;99744.88;5046211;28;20068;-84
2022/01/13 07:47:04;;;;;;;18.23;7.10;;;;;;;-14.99;66.18;99741.81;5039339;28;20045;-80
2022/01/13 07:49:31;;;;;;;18.13;7.00;;;;;;;-15.00;66.32;99744.16;5048492;28;20061;-84
2022/01/13 07:51:59;;;;;;;18.27;6.97;;;;;;;-15.06;65.79;99756.97;5052041;28;20391;-81
2022/01/13 07:54:30;;;;;;;21.48;7.38;;;;;;;-15.19;66.30;99716.34;5041421;28;20122;-83
2022/01/13 07:57:00;;;;;;;17.85;7.05;;;;;;;-15.27;66.29;99703.03;5053855;28;20052;-83
2022/01/13 07:59:29;;;;;;;15.88;5.57;;;;;;;-15.33;65.94;99699.94;5055552;28;20089;-81
2022/01/13 08:01:58;;;;;;;18.60;6.88;;;;;;;-15.19;65.59;99711.34;5036013;28;20148;-82
2022/01/13 08:04:25;;;;;;;20.30;6.75;;;;;;;-15.08;65.88;99691.63;5035695;28;20526;-83
2022/01/13 08:06:52;;;;;;;22.42;6.97;;;;;;;-14.83;65.40;99688.19;5052571;28;20111;-84
2022/01/13 08:09:22;;;;;;;18.20;6.63;;;;;;;-14.66;64.39;99700.78;5051518;28;20088;-83
2022/01/13 08:11:49;;;;;;;19.58;5.80;;;;;;;-14.61;64.17;99676.16;5052162;28;20917;-82
2022/01/13 08:14:16;;;;;;;17.52;6.28;;;;;;;-14.79;64.85;99647.66;5033640;28;20135;-83
2022/01/13 08:16:44;;;;;;;16.50;6.50;;;;;;;-14.78;64.91;99631.84;5051590;28;20629;-82
2022/01/13 08:21:57;;;;;;;20.42;6.90;;;;;;;-14.67;63.82;99619.66;5050909;28;20048;-83
2022/01/13 08:24:24;;;;;;;16.65;6.10;;;;;;;-14.64;64.26;99596.47;5051026;28;20507;-84
2022/01/13 08:26:54;;;;;;;16.30;6.53;;;;;;;-14.53;63.72;99625.06;5051384;28;20056;-83
2022/01/13 08:29:22;;;;;;;13.02;5.50;;;;;;;-14.61;64.19;99601.78;5039099;28;20045;-83
2022/01/13 08:31:49;;;;;;;12.68;5.38;;;;;;;-14.50;64.22;99598.66;5056264;28;20095;-87
2022/01/13 08:34:16;;;;;;;12.10;5.10;;;;;;;-14.39;64.43;99606.31;5052523;28;20494;-82
2022/01/13 08:36:44;;;;;;;18.63;6.18;;;;;;;-14.56;63.96;99580.56;5037626;28;20045;-83
2022/01/13 08:39:12;;;;;;;13.75;5.45;;;;;;;-14.68;64.54;99559.28;5062826;28;20087;-83
2022/01/13 08:41:40;;;;;;;15.02;5.63;;;;;;;-14.45;64.54;99584.06;5043558;28;20102;-83
2022/01/13 08:44:07;;;;;;;17.25;5.75;;;;;;;-14.43;64.57;99577.56;5023918;28;20055;-84
2022/01/13 08:46:34;;;;;;;17.77;6.22;;;;;;;-14.48;64.13;99557.03;5056565;28;20522;-83
2022/01/13 08:49:03;;;;;;;15.07;6.65;;;;;;;-14.58;64.06;99533.47;5057337;28;20056;-83
2022/01/13 08:51:30;;;;;;;19.15;5.22;;;;;;;-14.76;64.97;99553.53;5056956;28;20061;-82
2022/01/13 08:53:58;;;;;;;18.92;7.40;;;;;;;-14.77;64.76;99544.25;5039041;28;20049;-84
2022/01/13 08:56:25;;;;;;;15.30;5.85;;;;;;;-14.56;64.60;99534.50;5039306;28;20533;-84
2022/01/13 08:58:52;;;;;;;17.02;5.97;;;;;;;-14.48;63.99;99503.47;5056873;28;20061;-82
2022/01/13 09:01:21;;;;;;;13.07;5.70;;;;;;;-14.45;64.51;99476.19;5039202;28;20056;-80
2022/01/13 09:03:49;;;;;;;12.50;5.03;;;;;;;-14.41;64.33;99442.19;5055661;28;20064;-81
2022/01/13 09:06:16;;;;;;;17.88;5.85;;;;;;;-14.34;63.88;99429.50;5056735;28;20441;-82
2022/01/13 09:08:43;;;;;;;14.30;5.68;;;;;;;-14.12;63.95;99465.91;5057913;28;20049;-83
2022/01/13 09:11:10;;;;;;;14.80;5.47;;;;;;;-13.94;63.26;99491.81;5040732;28;20099;-82
2022/01/13 09:13:38;;;;;;;8.10;4.45;;;;;;;-13.89;63.62;99432.88;5039060;28;20053;-81
2022/01/13 09:16:14;;;;;;;13.13;6.30;;;;;;;-13.93;63.96;99427.44;5056825;28;20060;-83
2022/01/13 09:21:24;;;;;;;18.48;6.63;;;;;;;-13.80;63.14;99426.94;5038577;28;20564;-82
2022/01/13 09:23:52;;;;;;;14.63;6.13;;;;;;;-13.58;62.76;99405.50;5038734;28;20049;-85
2022/01/13 09:26:19;;;;;;;15.10;6.25;;;;;;;-13.65;62.51;99363.00;5025994;28;20053;-81
2022/01/13 09:28:49;;;;;;;13.10;5.93;;;;;;;-13.58;62.84;99417.19;5056983;28;20143;-84
2022/01/13 09:31:17;;;;;;;14.05;6.15;;;;;;;-13.56;63.23;99429.13;5057725;28;20064;-84
2022/01/13 09:33:45;;;;;;;12.50;5.95;;;;;;;-13.26;63.06;99407.47;5056161;28;20143;-84
2022/01/13 09:36:12;;;;;;;18.65;7.22;;;;;;;-12.95;61.91;99395.97;5038685;28;20080;-82
2022/01/13 09:38:39;;;;;;;17.15;6.65;;;;;;;-12.74;61.86;99416.19;5019615;28;20153;-82
2022/01/13 09:41:06;;;;;;;14.93;5.72;;;;;;;-12.53;62.08;99422.22;5015840;28;20511;-83
2022/01/13 09:43:33;;;;;;;14.55;5.65;;;;;;;-12.33;61.74;99418.88;5017626;28;20450;-85
2022/01/13 09:46:00;;;;;;;17.48;6.32;;;;;;;-12.30;61.32;99388.94;5015915;28;20088;-85
2022/01/13 09:48:28;;;;;;;13.35;5.72;;;;;;;-12.12;61.14;99377.91;5015279;28;20053;-84
2022/01/13 09:50:55;;;;;;;15.93;6.32;;;;;;;-12.31;61.30;99346.91;5015098;28;20141;-84
2022/01/13 09:53:22;;;;;;;17.05;6.03;;;;;;;-12.44;60.89;99348.38;5016510;28;20085;-83
2022/01/13 09:55:50;;;;;;;13.52;5.47;;;;;;;-12.56;62.03;99357.38;5016439;28;20053;-82
2022/01/13 09:58:17;;;;;;;11.70;5.30;;;;;;;-12.50;61.93;99346.97;5014973;28;20065;-85
2022/01/13 10:00:44;;;;;;;13.57;5.65;;;;;;;-12.55;61.80;99333.13;5016957;28;20046;-84
2022/01/13 10:03:17;;;;;;;12.30;4.85;;;;;;;-12.50;61.91;99337.78;5016451;28;20523;-80
2022/01/13 10:05:51;;;;;;;13.95;5.38;;;;;;;-12.51;61.99;99361.19;5014696;28;20053;-85
2022/01/13 10:08:23;;;;;;;18.35;7.38;;;;;;;-12.66;61.75;99352.34;5015414;28;20050;-83
2022/01/13 10:10:50;;;;;;;13.13;5.75;;;;;;;-12.62;62.06;99335.13;5015709;28;20057;-81
2022/01/13 10:13:40;;;;;;;13.68;6.05;;;;;;;-12.46;62.27;99308.72;5016090;28;20054;-82
2022/01/13 10:16:23;;;;;;;19.90;6.63;;;;;;;-12.41;61.82;99318.44;5015581;28;20136;-83
2022/01/13 10:18:52;;;;;;;16.23;7.18;;;;;;;-12.55;61.57;99291.22;5015418;28;20080;-82
2022/01/13 10:21:19;;;;;;;11.93;4.82;;;;;;;-12.70;61.54;99255.59;5014031;28;20057;-79
2022/01/13 10:24:11;;;;;;;15.80;5.25;;;;;;;-12.68;61.63;99265.78;5015177;28;20054;-81
2022/01/13 10:26:40;;;;;;;16.90;5.55;;;;;;;-12.67;62.08;99262.50;5015248;28;20045;-81
2022/01/13 10:29:08;;;;;;;16.65;7.53;;;;;;;-12.68;62.41;99233.94;5015207;28;20064;-84
2022/01/13 10:31:46;;;;;;;14.38;6.28;;;;;;;-12.64;61.91;99209.94;5014313;28;20058;-83
2022/01/13 10:34:23;;;;;;;18.48;6.65;;;;;;;-12.57;61.87;99195.47;5030547;28;20073;-84
2022/01/13 10:37:04;;;;;;;;;;;;;;;-12.55;62.00;99187.16;5020519;28;20053;-82
2022/01/13 10:39:49;;;;;;;16.75;5.45;;;;;;;-12.51;62.24;99153.97;5054378;28;19946;-83
2022/01/13 10:45:12;;;;;;;12.18;5.18;;;;;;;-12.54;61.74;99152.03;5033371;28;20053;-83
2022/01/13 10:47:40;;;;;;;15.90;6.20;;;;;;;-12.45;61.94;99154.44;5055452;28;20148;-81
2022/01/13 10:50:13;;;;;;;16.58;6.15;;;;;;;-12.67;61.96;99096.44;5053635;28;20041;-82
2022/01/13 10:52:43;;;;;;;12.55;5.00;;;;;;;-12.22;61.57;99123.59;5034828;28;20053;-81
2022/01/13 10:55:19;;;;;;;13.02;5.38;;;;;;;-12.17;61.31;99123.19;5051176;28;20057;-80
2022/01/13 10:58:07;;;;;;;12.90;5.00;;;;;;;-12.39;62.06;99107.13;5048618;28;20045;-80
2022/01/13 11:00:35;;;;;;;18.02;5.63;;;;;;;-12.31;61.94;99113.66;5053783;28;20049;-82
2022/01/13 11:03:09;;;;;;;12.20;4.45;;;;;;;-12.35;62.20;99096.53;5035441;28;20057;-81
2022/01/13 11:06:00;;;;;;;14.65;6.00;;;;;;;-12.43;62.22;99050.63;5055297;28;20099;-81
2022/01/13 11:08:39;;;;;;;8.25;4.13;;;;;;;-12.23;61.77;99064.81;5063957;28;20056;-83
2022/01/13 11:11:17;;;;;;;13.80;4.68;;;;;;;-12.30;62.13;99055.00;5054319;28;20120;-83
2022/01/13 11:13:56;;;;;;;15.93;5.30;;;;;;;-12.39;62.17;99051.75;5038993;28;20116;-82
2022/01/13 11:16:24;;;;;;;14.30;5.97;;;;;;;-12.54;62.49;99005.22;5056178;28;20516;-81
2022/01/13 11:18:52;;;;;;;12.35;5.10;;;;;;;-12.51;62.59;98998.81;5053907;28;20295;-83
2022/01/13 11:21:19;;;;;;;13.73;5.25;;;;;;;-12.42;62.66;99018.78;5035795;28;20477;-80
2022/01/13 11:23:50;;;;;;;12.10;5.15;;;;;;;-12.45;62.19;98999.28;5035506;28;20208;-82
2022/01/13 11:26:18;;;;;;;6.55;2.80;;;;;;;-12.59;62.26;98980.56;5053934;28;20076;-82
2022/01/13 11:28:48;;;;;;;9.85;4.78;;;;;;;-12.55;62.55;98978.31;5053489;28;20419;-82
2022/01/13 11:31:14;;;;;;;12.57;4.68;;;;;;;-12.61;62.42;98939.31;5036014;28;20495;-83
2022/01/13 11:33:41;;;;;;;8.85;3.83;;;;;;;-12.40;62.77;98931.69;5053603;28;20521;-82
2022/01/13 11:36:12;;;;;;;7.40;3.15;;;;;;;-12.42;61.88;98911.44;5053725;28;20394;-82
2022/01/13 11:38:55;;;;;;;10.75;4.03;;;;;;;-12.51;62.26;98912.38;5059848;28;20065;-82
2022/01/13 11:41:22;;;;;;;8.52;4.30;;;;;;;-12.38;62.69;98915.06;5027223;28;20107;-81
2022/01/13 11:43:50;;;;;;;8.80;3.60;;;;;;;-12.29;62.13;98898.16;5060656;28;20056;-80
2022/01/13 11:46:26;;;;;;;9.48;3.33;;;;;;;-12.32;62.66;98874.38;5036917;28;20049;-84
2022/01/13 11:49:15;;;;;;;9.45;4.00;;;;;;;-12.60;62.25;98807.72;5019008;28;20455;-82
2022/01/13 11:51:56;;;;;;;8.05;3.45;;;;;;;-12.51;62.50;98786.56;5048385;28;20071;-84
2022/01/13 11:54:35;;;;;;;7.03;3.40;;;;;;;-12.55;62.48;98797.16;5035288;28;20492;-82
2022/01/13 11:57:25;;;;;;;10.55;4.28;;;;;;;-12.31;62.39;98825.81;5048868;28;20052;-82
2022/01/13 11:59:58;;;;;;;8.38;3.97;;;;;;;-12.26;62.61;98812.81;5053279;28;20102;-82
2022/01/13 12:02:28;;;;;;;14.45;4.65;;;;;;;-12.24;62.86;98798.69;5031739;28;20400;-82